createdAt,value
2019-03-03T00:00:14.027Z,4.00
2019-03-03T00:01:14.009Z,4.00
2019-03-03T00:02:13.979Z,4.00
2019-03-03T00:03:13.963Z,4.00
2019-03-03T00:04:13.934Z,4.00
2019-03-03T00:05:13.926Z,4.00
2019-03-03T00:06:13.889Z,4.00
2019-03-03T00:07:13.876Z,4.00
2019-03-03T00:08:13.845Z,4.00
2019-03-03T00:09:13.823Z,4.00
2019-03-03T00:10:13.806Z,4.00
2019-03-03T00:11:13.779Z,4.00
2019-03-03T00:12:13.755Z,4.00
2019-03-03T00:13:13.743Z,4.00
2019-03-03T00:14:13.722Z,4.00
2019-03-03T00:15:13.697Z,4.00
2019-03-03T00:16:13.667Z,4.00
2019-03-03T00:17:13.651Z,4.00
2019-03-03T00:18:13.625Z,4.00
2019-03-03T00:19:13.600Z,4.00
2019-03-03T00:20:13.630Z,4.00
2019-03-03T00:21:13.562Z,4.00
2019-03-03T00:22:13.547Z,4.00
2019-03-03T00:23:13.520Z,4.00
2019-03-03T00:24:13.488Z,4.00
2019-03-03T00:25:13.482Z,4.00
2019-03-03T00:26:13.445Z,4.00
2019-03-03T00:27:13.422Z,4.00
2019-03-03T00:28:13.408Z,4.00
2019-03-03T00:29:13.377Z,4.00
2019-03-03T00:30:13.356Z,4.00
2019-03-03T00:31:13.332Z,4.00
2019-03-03T00:32:13.310Z,4.00
2019-03-03T00:33:13.290Z,4.00
2019-03-03T00:34:13.265Z,4.00
2019-03-03T00:35:13.244Z,4.00
2019-03-03T00:36:13.227Z,4.00
2019-03-03T00:37:13.213Z,4.00
2019-03-03T00:38:13.181Z,4.00
2019-03-03T00:39:13.167Z,4.00
2019-03-03T00:40:13.131Z,4.00
2019-03-03T00:41:13.112Z,4.00
2019-03-03T00:42:13.091Z,4.00
2019-03-03T00:43:13.065Z,4.00
2019-03-03T00:44:13.061Z,4.00
2019-03-03T00:45:13.022Z,4.00
2019-03-03T00:46:13.024Z,4.00
2019-03-03T00:47:12.977Z,4.00
2019-03-03T00:48:12.954Z,4.00
2019-03-03T00:49:12.939Z,4.00
2019-03-03T00:50:12.915Z,4.00
2019-03-03T00:51:12.895Z,4.00
2019-03-03T00:52:14.258Z,4.00
2019-03-03T00:53:12.844Z,4.00
2019-03-03T00:54:12.834Z,4.00
2019-03-03T00:55:12.796Z,4.00
2019-03-03T00:56:12.785Z,4.00
2019-03-03T00:57:12.757Z,4.00
2019-03-03T00:58:12.732Z,4.00
2019-03-03T00:59:12.710Z,4.00
2019-03-03T01:00:12.686Z,4.00
2019-03-03T01:01:12.663Z,4.00
2019-03-03T01:02:12.643Z,4.00
2019-03-03T01:03:12.620Z,4.00
2019-03-03T01:04:12.597Z,4.00
2019-03-03T01:05:12.576Z,4.00
2019-03-03T01:06:12.554Z,4.00
2019-03-03T01:07:12.533Z,4.00
2019-03-03T01:08:12.508Z,4.00
2019-03-03T01:09:12.493Z,4.00
2019-03-03T01:10:12.472Z,4.00
2019-03-03T01:11:12.444Z,4.00
2019-03-03T01:12:12.433Z,4.00
2019-03-03T01:13:12.396Z,4.00
2019-03-03T01:14:12.383Z,4.00
2019-03-03T01:15:12.353Z,4.00
2019-03-03T01:16:12.337Z,4.00
2019-03-03T01:17:12.325Z,4.00
2019-03-03T01:18:12.287Z,4.00
2019-03-03T01:19:12.271Z,4.00
2019-03-03T01:20:12.244Z,4.00
2019-03-03T01:21:12.219Z,4.00
2019-03-03T01:22:12.197Z,4.00
2019-03-03T01:23:12.175Z,4.00
2019-03-03T01:24:12.151Z,4.00
2019-03-03T01:25:12.130Z,4.00
2019-03-03T01:26:12.114Z,4.00
2019-03-03T01:27:12.086Z,4.00
2019-03-03T01:28:12.063Z,4.00
2019-03-03T01:29:12.042Z,4.00
2019-03-03T01:30:12.021Z,4.00
2019-03-03T01:31:11.996Z,4.00
2019-03-03T01:32:12.019Z,4.00
2019-03-03T01:33:11.952Z,4.00
2019-03-03T01:34:11.940Z,4.00
2019-03-03T01:35:11.916Z,4.00
2019-03-03T01:36:11.889Z,4.00
2019-03-03T01:37:11.865Z,4.00
2019-03-03T01:38:11.846Z,4.00
2019-03-03T01:39:11.823Z,4.00
2019-03-03T01:40:11.794Z,4.00
2019-03-03T01:41:11.773Z,4.00
2019-03-03T01:42:11.751Z,4.00
2019-03-03T01:43:11.731Z,4.00
2019-03-03T01:44:11.711Z,4.00
2019-03-03T01:45:11.692Z,4.00
2019-03-03T01:46:11.665Z,4.00
2019-03-03T01:47:11.641Z,4.00
2019-03-03T01:48:11.631Z,4.00
2019-03-03T01:49:11.602Z,4.00
2019-03-03T01:50:11.583Z,4.00
2019-03-03T01:51:11.552Z,4.00
2019-03-03T01:52:11.529Z,4.00
2019-03-03T01:53:11.508Z,4.00
2019-03-03T01:54:11.485Z,4.00
2019-03-03T01:55:11.462Z,4.00
2019-03-03T01:56:11.459Z,4.00
2019-03-03T01:57:11.418Z,4.00
2019-03-03T01:58:11.395Z,4.00
2019-03-03T01:59:11.372Z,4.00
2019-03-03T02:00:11.351Z,4.00
2019-03-03T02:01:11.329Z,4.00
2019-03-03T02:02:11.306Z,4.00
2019-03-03T02:03:11.284Z,4.00
2019-03-03T02:04:11.263Z,4.00
2019-03-03T02:05:11.241Z,4.00
2019-03-03T02:06:11.216Z,4.00
2019-03-03T02:07:11.199Z,4.00
2019-03-03T02:08:11.184Z,4.00
2019-03-03T02:09:11.151Z,4.00
2019-03-03T02:10:11.137Z,4.00
2019-03-03T02:11:11.106Z,4.00
2019-03-03T02:12:11.093Z,4.00
2019-03-03T02:13:11.162Z,4.00
2019-03-03T02:14:11.050Z,4.00
2019-03-03T02:15:11.020Z,4.00
2019-03-03T02:16:10.996Z,4.00
2019-03-03T02:17:10.973Z,4.00
2019-03-03T02:18:10.956Z,4.00
2019-03-03T02:19:10.929Z,4.00
2019-03-03T02:20:10.913Z,4.00
2019-03-03T02:21:10.885Z,4.00
2019-03-03T02:22:10.860Z,4.00
2019-03-03T02:23:10.840Z,4.00
2019-03-03T02:24:10.817Z,4.00
2019-03-03T02:25:10.797Z,4.00
2019-03-03T02:26:10.773Z,4.00
2019-03-03T02:27:10.752Z,4.00
2019-03-03T02:28:10.730Z,4.00
2019-03-03T02:29:10.723Z,4.00
2019-03-03T02:30:10.684Z,4.00
2019-03-03T02:31:10.662Z,4.00
2019-03-03T02:32:10.851Z,4.00
2019-03-03T02:33:10.617Z,4.00
2019-03-03T02:34:10.612Z,4.00
2019-03-03T02:35:10.578Z,4.00
2019-03-03T02:36:10.554Z,4.00
2019-03-03T02:37:10.533Z,4.00
2019-03-03T02:38:10.506Z,4.00
2019-03-03T02:39:10.484Z,4.00
2019-03-03T02:40:10.462Z,4.00
2019-03-03T02:41:10.440Z,4.00
2019-03-03T02:42:10.421Z,4.00
2019-03-03T02:43:10.399Z,4.00
2019-03-03T02:44:10.374Z,4.00
2019-03-03T02:45:10.350Z,4.00
2019-03-03T02:46:10.335Z,4.00
2019-03-03T02:47:10.313Z,4.00
2019-03-03T02:48:10.284Z,4.00
2019-03-03T02:49:10.284Z,4.00
2019-03-03T02:50:10.244Z,4.00
2019-03-03T02:51:10.217Z,4.00
2019-03-03T02:52:10.202Z,4.00
2019-03-03T02:53:10.170Z,4.00
2019-03-03T02:54:10.149Z,4.00
2019-03-03T02:55:10.129Z,4.00
2019-03-03T02:56:10.104Z,4.00
2019-03-03T02:57:10.082Z,4.00
2019-03-03T02:58:10.068Z,4.00
2019-03-03T02:59:10.041Z,4.00
2019-03-03T03:00:10.016Z,4.00
2019-03-03T03:01:09.995Z,4.00
2019-03-03T03:02:09.970Z,4.00
2019-03-03T03:03:09.948Z,4.00
2019-03-03T03:04:09.926Z,4.00
2019-03-03T03:05:09.904Z,4.00
2019-03-03T03:06:09.880Z,4.00
2019-03-03T03:07:09.858Z,4.00
2019-03-03T03:08:09.836Z,4.00
2019-03-03T03:09:09.873Z,4.00
2019-03-03T03:10:09.794Z,4.00
2019-03-03T03:11:09.770Z,4.00
2019-03-03T03:12:09.746Z,4.00
2019-03-03T03:13:09.723Z,4.00
2019-03-03T03:14:09.705Z,4.00
2019-03-03T03:15:09.682Z,4.00
2019-03-03T03:16:09.657Z,4.00
2019-03-03T03:17:09.643Z,4.00
2019-03-03T03:18:09.622Z,4.00
2019-03-03T03:19:09.590Z,4.00
2019-03-03T03:20:09.568Z,4.00
2019-03-03T03:21:09.545Z,4.00
2019-03-03T03:22:09.523Z,4.00
2019-03-03T03:23:09.503Z,4.00
2019-03-03T03:24:09.477Z,4.00
2019-03-03T03:25:09.464Z,4.00
2019-03-03T03:26:09.434Z,4.00
2019-03-03T03:27:09.413Z,4.00
2019-03-03T03:28:09.390Z,4.00
2019-03-03T03:29:09.368Z,4.00
2019-03-03T03:30:09.382Z,4.00
2019-03-03T03:31:09.324Z,4.00
2019-03-03T03:32:09.309Z,4.00
2019-03-03T03:33:09.279Z,4.00
2019-03-03T03:34:09.267Z,4.00
2019-03-03T03:35:09.234Z,4.00
2019-03-03T03:36:09.223Z,4.00
2019-03-03T03:37:09.189Z,4.00
2019-03-03T03:38:09.167Z,4.00
2019-03-03T03:39:09.145Z,4.00
2019-03-03T03:40:09.128Z,4.00
2019-03-03T03:41:09.247Z,4.00
2019-03-03T03:42:09.078Z,4.00
2019-03-03T03:43:09.054Z,4.00
2019-03-03T03:44:09.032Z,4.00
2019-03-03T03:45:09.009Z,4.00
2019-03-03T03:46:08.987Z,4.00
2019-03-03T03:47:08.963Z,4.00
2019-03-03T03:48:08.949Z,4.00
2019-03-03T03:49:08.921Z,4.00
2019-03-03T03:50:08.897Z,4.00
2019-03-03T03:51:08.875Z,4.00
2019-03-03T03:52:08.852Z,4.00
2019-03-03T03:53:08.829Z,4.00
2019-03-03T03:54:08.833Z,4.00
2019-03-03T03:55:08.796Z,4.00
2019-03-03T03:56:08.768Z,4.00
2019-03-03T03:57:08.738Z,4.00
2019-03-03T03:58:08.745Z,4.00
2019-03-03T03:59:08.696Z,4.00
2019-03-03T04:00:08.676Z,4.00
2019-03-03T04:01:08.658Z,4.00
2019-03-03T04:02:08.647Z,4.00
2019-03-03T04:03:08.606Z,4.00
2019-03-03T04:04:08.585Z,4.00
2019-03-03T04:05:08.568Z,4.00
2019-03-03T04:06:08.546Z,4.00
2019-03-03T04:07:08.521Z,4.00
2019-03-03T04:08:08.501Z,4.00
2019-03-03T04:09:08.474Z,4.00
2019-03-03T04:10:08.450Z,4.00
2019-03-03T04:11:08.446Z,4.00
2019-03-03T04:12:08.404Z,4.00
2019-03-03T04:13:08.382Z,4.00
2019-03-03T04:14:08.360Z,4.00
2019-03-03T04:15:08.337Z,4.00
2019-03-03T04:16:08.315Z,4.00
2019-03-03T04:17:08.294Z,4.00
2019-03-03T04:18:08.269Z,4.00
2019-03-03T04:19:08.248Z,4.00
2019-03-03T04:20:08.227Z,4.00
2019-03-03T04:21:08.281Z,4.00
2019-03-03T04:22:08.182Z,4.00
2019-03-03T04:23:08.183Z,4.00
2019-03-03T04:24:08.139Z,4.00
2019-03-03T04:25:08.113Z,4.00
2019-03-03T04:26:08.093Z,4.00
2019-03-03T04:27:08.071Z,4.00
2019-03-03T04:28:08.055Z,4.00
2019-03-03T04:29:08.029Z,4.00
2019-03-03T04:30:08.009Z,4.00
2019-03-03T04:31:07.979Z,4.00
2019-03-03T04:32:07.957Z,4.00
2019-03-03T04:33:07.935Z,4.00
2019-03-03T04:34:07.914Z,4.00
2019-03-03T04:35:07.894Z,4.00
2019-03-03T04:36:07.872Z,4.00
2019-03-03T04:37:07.848Z,4.00
2019-03-03T04:38:07.824Z,4.00
2019-03-03T04:39:07.804Z,4.00
2019-03-03T04:40:07.778Z,4.00
2019-03-03T04:41:07.756Z,4.00
2019-03-03T04:42:07.736Z,4.00
2019-03-03T04:43:07.711Z,4.00
2019-03-03T04:44:07.689Z,4.00
2019-03-03T04:45:07.668Z,4.00
2019-03-03T04:46:07.644Z,4.00
2019-03-03T04:47:07.623Z,4.00
2019-03-03T04:48:07.599Z,4.00
2019-03-03T04:49:07.577Z,4.00
2019-03-03T04:50:07.563Z,4.00
2019-03-03T04:51:07.533Z,4.00
2019-03-03T04:52:07.509Z,4.00
2019-03-03T04:53:07.492Z,4.00
2019-03-03T04:54:07.464Z,4.00
2019-03-03T04:55:07.442Z,4.00
2019-03-03T04:56:07.425Z,4.00
2019-03-03T04:57:07.398Z,4.00
2019-03-03T04:58:07.382Z,4.00
2019-03-03T04:59:07.361Z,4.00
2019-03-03T05:00:07.331Z,4.00
2019-03-03T05:01:07.409Z,4.00
2019-03-03T05:02:07.286Z,4.00
2019-03-03T05:03:07.266Z,4.00
2019-03-03T05:04:07.241Z,4.00
2019-03-03T05:05:07.220Z,4.00
2019-03-03T05:06:07.198Z,4.00
2019-03-03T05:07:07.185Z,4.00
2019-03-03T05:08:07.151Z,4.00
2019-03-03T05:09:07.131Z,4.00
2019-03-03T05:10:07.110Z,4.00
2019-03-03T05:11:07.087Z,4.00
2019-03-03T05:12:07.062Z,4.00
2019-03-03T05:13:07.043Z,4.00
2019-03-03T05:14:07.018Z,4.00
2019-03-03T05:15:06.998Z,4.00
2019-03-03T05:16:06.980Z,4.00
2019-03-03T05:17:08.709Z,4.00
2019-03-03T05:18:06.929Z,4.00
2019-03-03T05:19:06.907Z,4.00
2019-03-03T05:20:06.884Z,4.00
2019-03-03T05:21:06.861Z,4.00
2019-03-03T05:22:06.844Z,4.00
2019-03-03T05:23:06.817Z,4.00
2019-03-03T05:24:06.796Z,4.00
2019-03-03T05:25:06.772Z,4.00
2019-03-03T05:26:06.749Z,4.00
2019-03-03T05:27:06.727Z,4.00
2019-03-03T05:28:06.706Z,4.00
2019-03-03T05:29:06.682Z,4.00
2019-03-03T05:30:06.665Z,4.00
2019-03-03T05:31:06.639Z,4.00
2019-03-03T05:32:06.616Z,4.00
2019-03-03T05:33:06.591Z,4.00
2019-03-03T05:34:06.768Z,4.00
2019-03-03T05:35:06.546Z,4.00
2019-03-03T05:36:06.533Z,4.00
2019-03-03T05:37:06.511Z,4.00
2019-03-03T05:38:06.482Z,4.00
2019-03-03T05:39:06.470Z,4.00
2019-03-03T05:40:06.434Z,4.00
2019-03-03T05:41:06.411Z,4.00
2019-03-03T05:42:06.390Z,4.00
2019-03-03T05:43:06.367Z,4.00
2019-03-03T05:44:06.343Z,4.00
2019-03-03T05:45:06.320Z,4.00
2019-03-03T05:46:06.298Z,4.00
2019-03-03T05:47:06.278Z,4.00
2019-03-03T05:48:06.253Z,4.00
2019-03-03T05:49:06.231Z,4.00
2019-03-03T05:50:06.214Z,4.00
2019-03-03T05:51:06.186Z,4.00
2019-03-03T05:52:06.171Z,8.00
2019-03-03T05:53:06.142Z,8.00
2019-03-03T05:54:06.118Z,8.00
2019-03-03T05:55:06.097Z,12.00
2019-03-03T05:56:06.073Z,12.00
2019-03-03T05:57:06.051Z,12.00
2019-03-03T05:58:06.029Z,8.00
2019-03-03T05:59:06.006Z,12.00
2019-03-03T06:00:05.984Z,12.00
2019-03-03T06:01:05.961Z,16.00
2019-03-03T06:02:05.940Z,16.00
2019-03-03T06:03:05.916Z,20.00
2019-03-03T06:04:05.897Z,24.00
2019-03-03T06:05:05.869Z,24.00
2019-03-03T06:06:05.848Z,24.00
2019-03-03T06:07:05.928Z,28.00
2019-03-03T06:08:05.803Z,32.00
2019-03-03T06:09:05.782Z,36.00
2019-03-03T06:10:05.808Z,44.00
2019-03-03T06:11:05.742Z,48.00
2019-03-03T06:12:05.720Z,52.00
2019-03-03T06:13:05.693Z,44.00
2019-03-03T06:14:05.669Z,60.00
2019-03-03T06:15:05.645Z,48.00
2019-03-03T06:16:05.625Z,68.00
2019-03-03T06:17:05.602Z,68.00
2019-03-03T06:18:05.578Z,76.00
2019-03-03T06:19:05.565Z,76.00
2019-03-03T06:20:05.534Z,76.00
2019-03-03T06:21:05.511Z,72.00
2019-03-03T06:22:05.487Z,92.00
2019-03-03T06:23:05.474Z,112.00
2019-03-03T06:24:05.442Z,132.00
2019-03-03T06:25:05.422Z,136.00
2019-03-03T06:26:05.399Z,152.00
2019-03-03T06:27:05.372Z,140.00
2019-03-03T06:28:05.349Z,112.00
2019-03-03T06:29:05.328Z,112.00
2019-03-03T06:30:05.558Z,116.00
2019-03-03T06:31:05.284Z,132.00
2019-03-03T06:32:05.314Z,176.00
2019-03-03T06:33:05.242Z,212.00
2019-03-03T06:34:05.216Z,224.00
2019-03-03T06:35:05.198Z,196.00
2019-03-03T06:36:05.168Z,216.00
2019-03-03T06:37:05.150Z,244.00
2019-03-03T06:38:05.123Z,260.00
2019-03-03T06:39:05.101Z,332.00
2019-03-03T06:40:05.123Z,332.00
2019-03-03T06:41:05.057Z,352.00
2019-03-03T06:42:05.034Z,360.00
2019-03-03T06:43:05.020Z,380.00
2019-03-03T06:44:04.987Z,404.00
2019-03-03T06:45:04.968Z,364.00
2019-03-03T06:46:04.942Z,316.00
2019-03-03T06:47:04.921Z,292.00
2019-03-03T06:48:04.898Z,332.00
2019-03-03T06:49:04.880Z,344.00
2019-03-03T06:50:04.852Z,364.00
2019-03-03T06:51:04.828Z,372.00
2019-03-03T06:52:04.807Z,524.00
2019-03-03T06:53:04.782Z,488.00
2019-03-03T06:54:04.762Z,584.00
2019-03-03T06:55:04.739Z,684.00
2019-03-03T06:56:04.718Z,744.00
2019-03-03T06:57:04.692Z,688.00
2019-03-03T06:58:04.671Z,768.00
2019-03-03T06:59:04.648Z,716.00
2019-03-03T07:00:04.626Z,764.00
2019-03-03T07:01:04.604Z,776.00
2019-03-03T07:02:04.584Z,904.00
2019-03-03T07:03:04.578Z,992.00
2019-03-03T07:04:04.535Z,1032.00
2019-03-03T07:05:04.514Z,952.00
2019-03-03T07:06:04.500Z,756.00
2019-03-03T07:07:04.467Z,664.00
2019-03-03T07:08:04.496Z,700.00
2019-03-03T07:09:04.424Z,716.00
2019-03-03T07:10:04.401Z,764.00
2019-03-03T07:11:04.380Z,704.00
2019-03-03T07:12:04.357Z,648.00
2019-03-03T07:13:04.332Z,752.00
2019-03-03T07:14:04.310Z,856.00
2019-03-03T07:15:04.287Z,956.00
2019-03-03T07:16:04.264Z,876.00
2019-03-03T07:17:04.244Z,928.00
2019-03-03T07:18:04.220Z,920.00
2019-03-03T07:19:04.197Z,948.00
2019-03-03T07:20:04.173Z,956.00
2019-03-03T07:21:04.152Z,1100.00
2019-03-03T07:22:06.053Z,1124.00
2019-03-03T07:23:04.114Z,980.00
2019-03-03T07:24:04.089Z,976.00
2019-03-03T07:25:04.060Z,828.00
2019-03-03T07:26:04.082Z,864.00
2019-03-03T07:27:04.023Z,1060.00
2019-03-03T07:28:03.994Z,1020.00
2019-03-03T07:29:03.978Z,1388.00
2019-03-03T07:30:03.954Z,1232.00
2019-03-03T07:31:03.924Z,1044.00
2019-03-03T07:32:03.900Z,1044.00
2019-03-03T07:33:03.879Z,840.00
2019-03-03T07:34:03.855Z,924.00
2019-03-03T07:35:03.833Z,904.00
2019-03-03T07:36:03.810Z,1116.00
2019-03-03T07:37:03.789Z,1148.00
2019-03-03T07:38:03.766Z,1052.00
2019-03-03T07:39:03.744Z,1228.00
2019-03-03T07:40:03.725Z,964.00
2019-03-03T07:41:03.697Z,1436.00
2019-03-03T07:42:03.680Z,1184.00
2019-03-03T07:43:03.654Z,1632.00
2019-03-03T07:44:03.680Z,1584.00
2019-03-03T07:45:04.612Z,1580.00
2019-03-03T07:46:03.586Z,2036.00
2019-03-03T07:47:03.563Z,1792.00
2019-03-03T07:48:03.548Z,1972.00
2019-03-03T07:49:03.524Z,2156.00
2019-03-03T07:50:03.494Z,1812.00
2019-03-03T07:51:03.472Z,1836.00
2019-03-03T07:52:03.449Z,1764.00
2019-03-03T07:53:03.434Z,1724.00
2019-03-03T07:54:03.406Z,1776.00
2019-03-03T07:55:03.384Z,1916.00
2019-03-03T07:56:03.368Z,1680.00
2019-03-03T07:57:03.336Z,1956.00
2019-03-03T07:58:03.316Z,1948.00
2019-03-03T07:59:03.291Z,1872.00
2019-03-03T08:00:03.277Z,1640.00
2019-03-03T08:01:03.247Z,1484.00
2019-03-03T08:02:03.228Z,1780.00
2019-03-03T08:03:03.203Z,1756.00
2019-03-03T08:04:03.180Z,1740.00
2019-03-03T08:05:03.159Z,1964.00
2019-03-03T08:06:03.141Z,1844.00
2019-03-03T08:07:03.122Z,1912.00
2019-03-03T08:08:03.092Z,1832.00
2019-03-03T08:09:03.070Z,1788.00
2019-03-03T08:10:03.066Z,1924.00
2019-03-03T08:11:03.022Z,2092.00
2019-03-03T08:12:03.011Z,1872.00
2019-03-03T08:13:09.238Z,1620.00
2019-03-03T08:14:02.968Z,1764.00
2019-03-03T08:15:02.933Z,1868.00
2019-03-03T08:16:02.910Z,1836.00
2019-03-03T08:17:02.889Z,2008.00
2019-03-03T08:18:02.872Z,2100.00
2019-03-03T08:19:02.846Z,1732.00
2019-03-03T08:20:02.825Z,2100.00
2019-03-03T08:21:02.799Z,1704.00
2019-03-03T08:22:02.787Z,1784.00
2019-03-03T08:23:02.755Z,1772.00
2019-03-03T08:24:02.747Z,1724.00
2019-03-03T08:25:02.711Z,1784.00
2019-03-03T08:26:02.694Z,1784.00
2019-03-03T08:27:02.670Z,2188.00
2019-03-03T08:28:02.644Z,1944.00
2019-03-03T08:29:02.629Z,1928.00
2019-03-03T08:30:02.602Z,1824.00
2019-03-03T08:31:02.586Z,1964.00
2019-03-03T08:32:02.553Z,1868.00
2019-03-03T08:33:02.531Z,2108.00
2019-03-03T08:34:02.509Z,1864.00
2019-03-03T08:35:02.486Z,2064.00
2019-03-03T08:36:02.568Z,2228.00
2019-03-03T08:37:02.441Z,2052.00
2019-03-03T08:38:02.419Z,2008.00
2019-03-03T08:39:02.401Z,1704.00
2019-03-03T08:40:02.384Z,1936.00
2019-03-03T08:41:02.362Z,1764.00
2019-03-03T08:42:02.332Z,1700.00
2019-03-03T08:43:04.112Z,1676.00
2019-03-03T08:44:02.294Z,1828.00
2019-03-03T08:45:02.270Z,1984.00
2019-03-03T08:46:02.241Z,1828.00
2019-03-03T08:47:02.220Z,1696.00
2019-03-03T08:48:02.214Z,1808.00
2019-03-03T08:49:02.175Z,1676.00
2019-03-03T08:50:02.154Z,2028.00
2019-03-03T08:51:02.156Z,2784.00
2019-03-03T08:52:02.113Z,2404.00
2019-03-03T08:53:02.085Z,2388.00
2019-03-03T08:54:02.073Z,2832.00
2019-03-03T08:55:02.059Z,2340.00
2019-03-03T08:56:02.024Z,2240.00
2019-03-03T08:57:02.007Z,2884.00
2019-03-03T08:58:01.981Z,2488.00
2019-03-03T08:59:01.963Z,2744.00
2019-03-03T09:00:01.942Z,2492.00
2019-03-03T09:01:01.908Z,2704.00
2019-03-03T09:02:01.887Z,3480.00
2019-03-03T09:03:01.882Z,2900.00
2019-03-03T09:04:01.856Z,3548.00
2019-03-03T09:05:01.829Z,3060.00
2019-03-03T09:06:01.805Z,2436.00
2019-03-03T09:07:01.781Z,2404.00
2019-03-03T09:08:01.753Z,2472.00
2019-03-03T09:09:01.749Z,2412.00
2019-03-03T09:10:01.709Z,2680.00
2019-03-03T09:11:01.687Z,2244.00
2019-03-03T09:12:01.668Z,2108.00
2019-03-03T09:13:01.642Z,2092.00
2019-03-03T09:14:01.621Z,1576.00
2019-03-03T09:15:01.623Z,1932.00
2019-03-03T09:16:01.583Z,2612.00
2019-03-03T09:17:01.556Z,1796.00
2019-03-03T09:18:01.532Z,1744.00
2019-03-03T09:19:01.519Z,1848.00
2019-03-03T09:20:01.491Z,1804.00
2019-03-03T09:21:01.481Z,1532.00
2019-03-03T09:22:01.449Z,1836.00
2019-03-03T09:23:01.436Z,2312.00
2019-03-03T09:24:01.400Z,2308.00
2019-03-03T09:25:01.378Z,1628.00
2019-03-03T09:26:01.364Z,1856.00
2019-03-03T09:27:01.333Z,1784.00
2019-03-03T09:28:01.327Z,2204.00
2019-03-03T09:29:01.298Z,2932.00
2019-03-03T09:30:01.275Z,3272.00
2019-03-03T09:31:01.262Z,3500.00
2019-03-03T09:32:01.222Z,2072.00
2019-03-03T09:33:01.216Z,1664.00
2019-03-03T09:34:01.177Z,2140.00
2019-03-03T09:35:01.163Z,1980.00
2019-03-03T09:36:01.136Z,2748.00
2019-03-03T09:37:01.121Z,4272.00
2019-03-03T09:38:01.095Z,3900.00
2019-03-03T09:39:01.072Z,4344.00
2019-03-03T09:40:09.093Z,2872.00
2019-03-03T09:41:01.032Z,3172.00
2019-03-03T09:42:01.012Z,2396.00
2019-03-03T09:43:00.983Z,2200.00
2019-03-03T09:44:00.960Z,3176.00
2019-03-03T09:45:00.937Z,3564.00
2019-03-03T09:46:00.925Z,3332.00
2019-03-03T09:47:00.902Z,2972.00
2019-03-03T09:48:00.893Z,3636.00
2019-03-03T09:49:00.860Z,3376.00
2019-03-03T09:50:00.851Z,3452.00
2019-03-03T09:51:00.820Z,3036.00
2019-03-03T09:52:00.796Z,3156.00
2019-03-03T09:53:00.771Z,2676.00
2019-03-03T09:54:00.749Z,2844.00
2019-03-03T09:55:00.719Z,4412.00
2019-03-03T09:56:00.698Z,3812.00
2019-03-03T09:57:00.702Z,3668.00
2019-03-03T09:58:00.655Z,3848.00
2019-03-03T09:59:00.652Z,3900.00
2019-03-03T10:00:00.620Z,2960.00
2019-03-03T10:01:00.598Z,3496.00
2019-03-03T10:02:00.564Z,3252.00
2019-03-03T10:03:00.549Z,3188.00
2019-03-03T10:04:00.637Z,3024.00
2019-03-03T10:05:00.513Z,4056.00
2019-03-03T10:06:00.484Z,3288.00
2019-03-03T10:07:00.456Z,3012.00
2019-03-03T10:08:00.438Z,3124.00
2019-03-03T10:09:00.416Z,4296.00
2019-03-03T10:10:00.391Z,4536.00
2019-03-03T10:11:00.376Z,4564.00
2019-03-03T10:12:00.350Z,3076.00
2019-03-03T10:13:00.328Z,2956.00
2019-03-03T10:14:00.305Z,3040.00
2019-03-03T10:15:00.380Z,4016.00
2019-03-03T10:16:00.267Z,3860.00
2019-03-03T10:17:00.250Z,3060.00
2019-03-03T10:18:00.218Z,3000.00
2019-03-03T10:19:06.956Z,2648.00
2019-03-03T10:20:00.223Z,2892.00
2019-03-03T10:21:00.163Z,3216.00
2019-03-03T10:22:00.134Z,3096.00
2019-03-03T10:23:00.109Z,2832.00
2019-03-03T10:24:00.093Z,3236.00
2019-03-03T10:25:00.270Z,2876.00
2019-03-03T10:26:00.149Z,2932.00
2019-03-03T10:27:00.032Z,2472.00
2019-03-03T10:28:00.005Z,3592.00
2019-03-03T10:28:59.977Z,3152.00
2019-03-03T10:29:59.959Z,3476.00
2019-03-03T10:30:59.949Z,3088.00
2019-03-03T10:31:59.909Z,3848.00
2019-03-03T10:32:59.894Z,3116.00
2019-03-03T10:33:59.870Z,2980.00
2019-03-03T10:34:59.854Z,2912.00
2019-03-03T10:35:59.834Z,2788.00
2019-03-03T10:36:59.810Z,2796.00
2019-03-03T10:37:59.781Z,2692.00
2019-03-03T10:38:59.767Z,3060.00
2019-03-03T10:39:59.748Z,3436.00
2019-03-03T10:40:59.742Z,4164.00
2019-03-03T10:41:59.712Z,4004.00
2019-03-03T10:42:59.673Z,3252.00
2019-03-03T10:43:59.651Z,3336.00
2019-03-03T10:44:59.730Z,4120.00
2019-03-03T10:45:59.614Z,3708.00
2019-03-03T10:46:59.611Z,4108.00
2019-03-03T10:47:59.577Z,4352.00
2019-03-03T10:48:59.546Z,3364.00
2019-03-03T10:49:59.519Z,2956.00
2019-03-03T10:50:59.507Z,3620.00
2019-03-03T10:51:59.488Z,3164.00
2019-03-03T10:52:59.466Z,3192.00
2019-03-03T10:53:59.448Z,3812.00
2019-03-03T10:54:59.412Z,3628.00
2019-03-03T10:55:59.443Z,3228.00
2019-03-03T10:56:59.391Z,3660.00
2019-03-03T10:57:59.350Z,3700.00
2019-03-03T10:58:59.335Z,4672.00
2019-03-03T10:59:59.310Z,4112.00
2019-03-03T11:00:59.293Z,3684.00
2019-03-03T11:01:59.266Z,3608.00
2019-03-03T11:02:59.253Z,4292.00
2019-03-03T11:03:59.223Z,4272.00
2019-03-03T11:04:59.211Z,4364.00
2019-03-03T11:05:59.175Z,3452.00
2019-03-03T11:06:59.167Z,3980.00
2019-03-03T11:07:59.131Z,4484.00
2019-03-03T11:08:59.111Z,4200.00
2019-03-03T11:09:59.095Z,3936.00
2019-03-03T11:10:59.090Z,3168.00
2019-03-03T11:11:59.049Z,4436.00
2019-03-03T11:12:59.035Z,3308.00
2019-03-03T11:13:59.090Z,4428.00
2019-03-03T11:14:58.995Z,3440.00
2019-03-03T11:15:58.968Z,4032.00
2019-03-03T11:16:58.947Z,3108.00
2019-03-03T11:17:58.967Z,3808.00
2019-03-03T11:18:58.902Z,4228.00
2019-03-03T11:19:58.885Z,3364.00
2019-03-03T11:20:58.867Z,3332.00
2019-03-03T11:21:58.830Z,3824.00
2019-03-03T11:22:58.821Z,4164.00
2019-03-03T11:23:58.795Z,3976.00
2019-03-03T11:24:58.779Z,4724.00
2019-03-03T11:25:58.763Z,3608.00
2019-03-03T11:26:58.741Z,3768.00
2019-03-03T11:27:58.721Z,3716.00
2019-03-03T11:28:58.681Z,3716.00
2019-03-03T11:29:58.661Z,2908.00
2019-03-03T11:30:58.658Z,2632.00
2019-03-03T11:31:58.624Z,2928.00
2019-03-03T11:32:58.619Z,3232.00
2019-03-03T11:33:58.584Z,3328.00
2019-03-03T11:34:58.556Z,2744.00
2019-03-03T11:35:58.540Z,2968.00
2019-03-03T11:36:58.512Z,2612.00
2019-03-03T11:37:58.500Z,3360.00
2019-03-03T11:38:58.475Z,4196.00
2019-03-03T11:39:58.457Z,2940.00
2019-03-03T11:40:58.438Z,2380.00
2019-03-03T11:41:58.418Z,2372.00
2019-03-03T11:42:58.385Z,2596.00
2019-03-03T11:43:58.365Z,2992.00
2019-03-03T11:44:58.344Z,3040.00
2019-03-03T11:45:58.325Z,3268.00
2019-03-03T11:46:58.302Z,3428.00
2019-03-03T11:48:04.197Z,2636.00
2019-03-03T11:48:58.261Z,2864.00
2019-03-03T11:49:58.234Z,3036.00
2019-03-03T11:50:58.219Z,3588.00
2019-03-03T11:51:58.214Z,3360.00
2019-03-03T11:52:58.178Z,3136.00
2019-03-03T11:53:58.163Z,2784.00
2019-03-03T11:54:58.141Z,2912.00
2019-03-03T11:55:58.106Z,3140.00
2019-03-03T11:56:58.086Z,3100.00
2019-03-03T11:57:58.073Z,2832.00
2019-03-03T11:58:58.043Z,3784.00
2019-03-03T11:59:58.029Z,4588.00
2019-03-03T12:00:58.005Z,4384.00
2019-03-03T12:01:57.979Z,5360.00
2019-03-03T12:02:57.975Z,5464.00
2019-03-03T12:03:57.952Z,5936.00
2019-03-03T12:04:57.927Z,7812.00
2019-03-03T12:05:57.894Z,7368.00
2019-03-03T12:06:57.874Z,7144.00
2019-03-03T12:07:57.855Z,6812.00
2019-03-03T12:08:57.838Z,6352.00
2019-03-03T12:09:57.811Z,6236.00
2019-03-03T12:10:57.799Z,7656.00
2019-03-03T12:11:57.769Z,8868.00
2019-03-03T12:12:57.747Z,8928.00
2019-03-03T12:13:57.734Z,10452.00
2019-03-03T12:14:57.751Z,10064.00
2019-03-03T12:15:57.682Z,7344.00
2019-03-03T12:16:57.666Z,7388.00
2019-03-03T12:17:57.646Z,8716.00
2019-03-03T12:18:57.624Z,7692.00
2019-03-03T12:19:57.601Z,7576.00
2019-03-03T12:20:57.587Z,8432.00
2019-03-03T12:21:57.559Z,7164.00
2019-03-03T12:22:57.539Z,7052.00
2019-03-03T12:23:57.567Z,7988.00
2019-03-03T12:24:57.509Z,5452.00
2019-03-03T12:25:57.492Z,4076.00
2019-03-03T12:26:57.455Z,4200.00
2019-03-03T12:27:57.437Z,5196.00
2019-03-03T12:28:57.424Z,4968.00
2019-03-03T12:29:57.395Z,5600.00
2019-03-03T12:30:57.405Z,4928.00
2019-03-03T12:31:57.367Z,5528.00
2019-03-03T12:32:57.332Z,5164.00
2019-03-03T12:33:57.314Z,3496.00
2019-03-03T12:34:57.301Z,5772.00
2019-03-03T12:35:57.273Z,5120.00
2019-03-03T12:36:57.253Z,4548.00
2019-03-03T12:37:57.246Z,3908.00
2019-03-03T12:38:57.217Z,4296.00
2019-03-03T12:39:57.192Z,3132.00
2019-03-03T12:40:57.169Z,3616.00